createdAt,value
2019-01-13T00:04:42.128Z,99172.95
2019-01-13T00:09:46.448Z,99172.95
2019-01-13T00:14:50.776Z,99157.09
2019-01-13T00:19:55.096Z,99157.80
2019-01-13T00:24:59.274Z,99161.72
2019-01-13T00:30:03.993Z,99154.15
2019-01-13T00:35:08.545Z,99150.72
2019-01-13T00:40:14.338Z,99154.64
2019-01-13T00:45:18.604Z,99140.10
2019-01-13T00:50:22.843Z,99152.70
2019-01-13T00:55:27.068Z,99148.91
2019-01-13T01:00:31.297Z,99134.28
2019-01-13T01:05:35.560Z,99130.85
2019-01-13T01:10:39.794Z,99130.85
2019-01-13T01:15:44.111Z,99140.98
2019-01-13T01:20:48.428Z,99134.67
2019-01-13T01:25:52.753Z,99138.89
2019-01-13T01:30:57.033Z,99135.35
2019-01-13T01:36:01.309Z,99135.35
2019-01-13T01:41:05.574Z,99135.35
2019-01-13T01:46:09.776Z,99135.48
2019-01-13T01:51:13.859Z,99132.31
2019-01-13T01:56:17.987Z,99132.31
2019-01-13T02:01:22.366Z,99131.45
2019-01-13T02:06:26.633Z,99132.17
2019-01-13T02:11:31.121Z,99132.17
2019-01-13T02:16:35.295Z,99135.27
2019-01-13T02:21:39.629Z,99135.27
2019-01-13T02:26:43.856Z,99137.22
2019-01-13T02:31:48.138Z,99132.69
2019-01-13T02:36:52.382Z,99137.96
2019-01-13T02:41:56.551Z,99129.78
2019-01-13T02:47:00.800Z,99124.27
2019-01-13T02:52:05.085Z,99116.50
2019-01-13T02:57:09.458Z,99135.16
2019-01-13T03:02:13.699Z,99126.35
2019-01-13T03:07:18.086Z,99126.35
2019-01-13T03:12:22.451Z,99132.61
2019-01-13T03:17:26.768Z,99130.88
2019-01-13T03:22:31.063Z,99117.58
2019-01-13T03:27:35.447Z,99117.58
2019-01-13T03:32:39.814Z,99106.68
2019-01-13T03:37:44.107Z,99106.68
2019-01-13T03:42:48.747Z,99095.59
2019-01-13T03:47:53.003Z,99107.53
2019-01-13T03:53:00.337Z,99110.22
2019-01-13T03:58:04.744Z,99109.37
2019-01-13T04:03:09.019Z,99106.82
2019-01-13T04:08:13.310Z,99106.33
2019-01-13T04:13:17.521Z,99096.06
2019-01-13T04:18:21.872Z,99094.37
2019-01-13T04:23:26.204Z,99083.75
2019-01-13T04:28:30.518Z,99069.59
2019-01-13T04:33:34.835Z,99080.56
2019-01-13T04:38:39.007Z,99080.56
2019-01-13T04:43:43.307Z,99083.75
2019-01-13T04:48:47.465Z,99072.61
2019-01-13T04:53:51.871Z,99072.61
2019-01-13T04:58:56.106Z,99068.58
2019-01-13T05:04:00.285Z,99061.39
2019-01-13T05:09:06.855Z,99061.39
2019-01-13T05:14:11.068Z,99046.17
2019-01-13T05:19:15.343Z,99046.17
2019-01-13T05:24:19.606Z,99048.34
2019-01-13T05:29:23.931Z,99048.34
2019-01-13T05:34:28.086Z,99044.66
2019-01-13T05:39:32.442Z,99044.17
2019-01-13T05:44:36.744Z,99044.66
2019-01-13T05:49:41.017Z,99031.72
2019-01-13T05:54:45.431Z,99028.89
2019-01-13T05:59:49.716Z,99028.89
2019-01-13T06:04:53.955Z,99025.91
2019-01-13T06:09:58.235Z,99031.47
2019-01-13T06:15:02.682Z,99030.27
2019-01-13T06:20:10.432Z,99021.35
2019-01-13T06:25:14.917Z,99021.35
2019-01-13T06:30:23.750Z,99017.31
2019-01-13T06:35:28.057Z,99015.48
2019-01-13T06:40:32.377Z,99015.98
2019-01-13T06:45:36.704Z,99011.59
2019-01-13T06:50:41.103Z,99005.40
2019-01-13T06:55:45.574Z,99005.40
2019-01-13T07:00:49.736Z,99010.48
2019-01-13T07:05:53.856Z,99010.48
2019-01-13T07:10:57.961Z,98999.80
2019-01-13T07:16:02.166Z,98998.39
2019-01-13T07:21:06.328Z,98997.42
2019-01-13T07:26:10.676Z,98999.38
2019-01-13T07:31:14.815Z,98987.80
2019-01-13T07:36:18.884Z,98985.98
2019-01-13T07:41:23.132Z,98985.98
2019-01-13T07:46:27.363Z,98980.54
2019-01-13T07:51:31.533Z,98972.86
2019-01-13T07:56:35.646Z,98950.28
2019-01-13T08:01:39.812Z,98944.69
2019-01-13T08:06:44.087Z,98926.47
2019-01-13T08:11:48.420Z,98941.81
2019-01-13T08:16:52.471Z,98941.81
2019-01-13T08:21:56.511Z,98931.78
2019-01-13T08:27:00.741Z,98926.69
2019-01-13T08:32:04.921Z,98915.63
2019-01-13T08:37:09.008Z,98896.50
2019-01-13T08:42:13.017Z,98902.38
2019-01-13T08:47:17.116Z,98893.34
2019-01-13T08:52:21.547Z,98893.34
2019-01-13T08:57:25.770Z,98872.27
2019-01-13T09:02:32.309Z,98858.22
2019-01-13T09:07:35.810Z,98858.58
2019-01-13T09:12:40.323Z,98852.20
2019-01-13T09:17:44.501Z,98839.78
2019-01-13T09:22:48.786Z,98821.80
2019-01-13T09:27:52.820Z,98821.80
2019-01-13T09:32:56.926Z,98811.57
2019-01-13T09:38:01.142Z,98801.31
2019-01-13T09:43:06.053Z,98797.80
2019-01-13T09:48:10.172Z,98782.84
2019-01-13T09:53:14.525Z,98767.84
2019-01-13T09:58:18.651Z,98767.84
2019-01-13T10:03:22.851Z,98760.02
2019-01-13T10:08:27.018Z,98717.45
2019-01-13T10:13:31.055Z,98710.58
2019-01-13T10:18:35.098Z,98690.77
2019-01-13T10:23:39.193Z,98667.06
2019-01-13T10:28:43.576Z,98667.06
2019-01-13T10:33:47.753Z,98647.19
2019-01-13T10:38:51.925Z,98630.63
2019-01-13T10:43:56.174Z,98615.65
2019-01-13T10:49:00.295Z,98593.15
2019-01-13T10:54:09.124Z,98593.15
2019-01-13T10:59:10.633Z,98571.11
2019-01-13T11:04:14.683Z,98549.36
2019-01-13T11:09:18.833Z,98534.88
2019-01-13T11:14:22.848Z,98524.33
2019-01-13T11:19:26.985Z,98523.52
2019-01-13T11:24:31.223Z,98500.88
2019-01-13T11:29:35.239Z,98500.88
2019-01-13T11:34:39.321Z,98458.02
2019-01-13T11:39:43.438Z,98443.05
2019-01-13T11:44:47.662Z,98421.97
2019-01-13T11:49:51.837Z,98404.00
2019-01-13T11:54:55.891Z,98391.56
2019-01-13T12:00:00.182Z,98383.95
2019-01-13T12:05:05.036Z,98370.25
2019-01-13T12:10:11.440Z,98358.12
2019-01-13T12:15:16.718Z,98358.12
2019-01-13T12:20:22.288Z,98323.65
2019-01-13T12:25:26.433Z,98323.65
2019-01-13T12:30:31.858Z,98299.66
2019-01-13T12:35:35.968Z,98289.51
2019-01-13T12:40:40.010Z,98274.55
2019-01-13T12:45:44.135Z,98258.14
2019-01-13T12:50:48.140Z,98238.47
2019-01-13T12:55:52.437Z,98234.01
2019-01-13T13:00:56.579Z,98213.45
2019-01-13T13:06:00.631Z,98202.54
2019-01-13T13:11:04.829Z,98175.59
2019-01-13T13:16:09.025Z,98169.53
2019-01-13T13:21:13.184Z,98158.31
2019-01-13T13:26:17.299Z,98155.91
2019-01-13T13:31:21.616Z,98147.15
2019-01-13T13:36:25.768Z,98147.15
2019-01-13T13:41:29.825Z,98098.44
2019-01-13T13:46:34.075Z,98088.70
2019-01-13T13:51:38.183Z,98088.70
2019-01-13T13:56:42.295Z,98081.81
2019-01-13T14:01:46.489Z,98076.78
2019-01-13T14:06:51.705Z,98078.97
2019-01-13T14:11:56.319Z,98064.97
2019-01-13T14:17:00.407Z,98064.48
2019-01-13T14:22:04.611Z,98041.78
2019-01-13T14:27:08.801Z,98039.20
2019-01-13T14:32:12.987Z,98039.20
2019-01-13T14:37:17.060Z,98022.72
2019-01-13T14:42:21.118Z,98022.72
2019-01-13T14:47:25.363Z,98014.79
2019-01-13T14:52:29.491Z,97996.27
2019-01-13T14:57:33.804Z,98014.32
2019-01-13T15:02:37.860Z,98021.72
2019-01-13T15:07:42.118Z,98021.72
2019-01-13T15:12:46.295Z,98006.75
2019-01-13T15:17:50.518Z,98007.56
2019-01-13T15:22:54.754Z,98007.56
2019-01-13T15:27:59.342Z,97983.02
2019-01-13T15:33:03.604Z,97959.43
2019-01-13T15:38:09.067Z,97959.43
2019-01-13T15:43:13.214Z,97954.74
2019-01-13T15:48:17.280Z,97946.47
2019-01-13T15:53:21.373Z,97946.47
2019-01-13T15:58:25.577Z,97933.55
2019-01-13T16:03:29.748Z,97923.94
2019-01-13T16:08:33.851Z,97923.94
2019-01-13T16:13:37.908Z,97916.38
2019-01-13T16:18:41.973Z,97908.10
2019-01-13T16:23:46.111Z,97898.85
2019-01-13T16:28:50.256Z,97898.85
2019-01-13T16:33:54.426Z,97870.74
2019-01-13T16:38:58.599Z,97855.23
2019-01-13T16:44:02.729Z,97826.63
2019-01-13T16:49:07.033Z,97834.53
2019-01-13T16:54:11.089Z,97821.56
2019-01-13T16:59:15.257Z,97819.05
2019-01-13T17:04:19.389Z,97819.05
2019-01-13T17:09:23.446Z,97803.32
2019-01-13T17:14:27.492Z,97764.58
2019-01-13T17:19:33.411Z,97741.20
2019-01-13T17:24:37.472Z,97738.13
2019-01-13T17:29:41.483Z,97737.15
2019-01-13T17:34:45.491Z,97737.15
2019-01-13T17:39:49.578Z,97709.69
2019-01-13T17:44:53.638Z,97699.42
2019-01-13T17:49:57.678Z,97686.61
2019-01-13T17:55:01.787Z,97703.10
2019-01-13T18:00:11.601Z,97703.10
2019-01-13T18:05:15.703Z,97688.79
2019-01-13T18:10:19.961Z,97659.47
2019-01-13T18:15:24.122Z,97649.36
2019-01-13T18:20:28.212Z,97662.02
2019-01-13T18:25:32.380Z,97660.05
2019-01-13T18:30:36.405Z,97652.07
2019-01-13T18:35:40.617Z,97661.84
2019-01-13T18:40:44.777Z,97653.30
2019-01-13T18:45:48.966Z,97646.89
2019-01-13T18:50:53.091Z,97646.89
2019-01-13T18:55:57.102Z,97640.48
2019-01-13T19:01:02.913Z,97635.91
2019-01-13T19:06:07.012Z,97639.12
2019-01-13T19:11:37.991Z,97659.00
2019-01-13T19:16:59.040Z,97679.88
2019-01-13T19:22:04.597Z,97679.88
2019-01-13T19:27:10.662Z,97719.27
2019-01-13T19:32:14.687Z,97725.35
2019-01-13T19:37:18.904Z,97737.48
2019-01-13T19:42:23.011Z,97737.48
2019-01-13T19:47:27.111Z,97756.20
2019-01-13T19:52:31.223Z,97756.20
2019-01-13T19:57:35.326Z,97762.15
2019-01-13T20:02:39.424Z,97758.11
2019-01-13T20:07:43.529Z,97763.78
2019-01-13T20:12:47.689Z,97770.70
2019-01-13T20:17:51.777Z,97750.17
2019-01-13T20:22:56.005Z,97762.25
2019-01-13T20:28:00.112Z,97762.25
2019-01-13T20:33:05.582Z,97768.87
2019-01-13T20:38:09.768Z,97762.14
2019-01-13T20:43:13.813Z,97767.55
2019-01-13T20:48:17.948Z,97764.50
2019-01-13T20:53:22.268Z,97764.50
2019-01-13T20:58:26.288Z,97786.59
2019-01-13T21:03:30.499Z,97784.05
2019-01-13T21:08:34.637Z,97774.13
2019-01-13T21:13:38.737Z,97774.13
2019-01-13T21:18:42.865Z,97776.98
2019-01-13T21:23:46.878Z,97787.75
2019-01-13T21:28:50.908Z,97796.67
2019-01-13T21:33:54.931Z,97788.74
2019-01-13T21:38:59.106Z,97782.34
2019-01-13T21:44:03.286Z,97782.34
2019-01-13T21:49:07.377Z,97802.20
2019-01-13T21:54:11.557Z,97796.80
2019-01-13T21:59:15.664Z,97806.06
2019-01-13T22:04:19.671Z,97804.55
2019-01-13T22:09:23.802Z,97803.70
2019-01-13T22:14:29.267Z,97802.88
2019-01-13T22:19:33.376Z,97789.02
2019-01-13T22:24:37.505Z,97802.34
2019-01-13T22:29:41.634Z,97811.43
2019-01-13T22:34:45.890Z,97813.58
2019-01-13T22:39:49.984Z,97803.50
2019-01-13T22:44:53.991Z,97807.53
2019-01-13T22:49:58.034Z,97802.16
2019-01-13T22:55:02.273Z,97809.55
2019-01-13T23:00:38.419Z,97809.55
2019-01-13T23:05:42.437Z,97803.83
2019-01-13T23:10:46.542Z,97799.67
2019-01-13T23:15:50.728Z,97799.16
2019-01-13T23:20:54.954Z,97818.85
2019-01-13T23:25:58.966Z,97817.48
2019-01-13T23:31:03.144Z,97817.48
2019-01-13T23:36:07.279Z,97824.38
2019-01-13T23:41:11.533Z,97824.20
2019-01-13T23:46:15.904Z,97829.76
2019-01-13T23:51:19.944Z,97829.76
2019-01-13T23:56:23.989Z,97831.28
